NCAR-RAP Real-Time Weather Data

Output produced by METARs form (08 May 2021  01:10 UTC)
found at http://weather.rap.ucar.edu/surface/
 
KTUP 080053Z 00000KT 10SM CLR 18/07 A3008 RMK AO2 SLP184 T01780072 $
KTUP 072353Z 00000KT 10SM CLR 21/04 A3010 RMK AO2 SLP189 T02110044 10222 20200 56013 $
KTUP 072253Z VRB04KT 10SM CLR 22/04 A3011 RMK AO2 SLP193 T02220039 $
KTUP 072153Z 36006KT 10SM CLR 22/03 A3012 RMK AO2 SLP196 T02220033 $
KTUP 072053Z VRB04KT 10SM CLR 22/03 A3014 RMK AO2 SLP202 T02170028 58020 $
KTUP 071953Z VRB03KT 10SM CLR 22/04 A3016 RMK AO2 SLP209 T02220044 $
KTUP 071853Z 03006KT 10SM CLR 21/03 A3019 RMK AO2 SLP220 T02060028 $
KTUP 071753Z 02007KT 10SM CLR 20/03 A3019 RMK AO2 SLP223 T02000033 10206 20117 58011 $
KTUP 071653Z 02007KT 10SM CLR 19/04 A3023 RMK AO2 SLP233 T01940039 $
KTUP 071553Z 35006KT 10SM CLR 18/05 A3024 RMK AO2 SLP237 T01830050 $
KTUP 071453Z 02004KT 10SM CLR 17/06 A3023 RMK AO2 SLP234 T01670061 50013 $
KTUP 071353Z 01007KT 10SM CLR 16/09 A3023 RMK AO2 SLP235 T01560089 $
KTUP 071253Z 36005KT 10SM CLR 13/09 A3021 RMK AO2 SLP229 T01330089 $
KTUP 071153Z 30003KT 10SM CLR 12/09 A3019 RMK AO2 SLP221 70014 T01170094 10122 20100 53020 $
KTUP 071053Z 00000KT 9SM CLR 11/09 A3016 RMK AO2 SLP210 T01060089 $